Sierra Vista, AZ (85650)

8:48 PM MST on July 27, 2015 (GMT -0700)
Canyon De Flores -Cochise County (N0NBH) | | Change Station
CLOSE
Current Station
Personal Weather Station
Location: Sierra Vista, AZ
Elevation: 4645 ft
Nearby Weather Stations

Elev 4645 ft 31.50 °N, 110.26 °W | Updated 1 minute ago

Clear
Clear
77.9 °F
Feels Like 79 °F
N
0.6
Wind Variable Wind from South
Gusts 4.2 mph

Today
High -- | Low -- °F
--% Chance of Precip.
Yesterday
High -- | Low -- °F
Precip. -- in
5:34 AM 7:20 PM
Waxing Gibbous, 86% visible
Pressure 29.85 in
Visibility 10.0 miles
Clouds Clear
Heat Index 79 °F
Dew Point 58 °F
Humidity 50%
Rainfall 0.00 in
Snow Depth Not available.
UV 0.0 out of 12
Pollen 4.70 out of 12
Air Quality Not available.
Flu Activity Not available.
METAR KFHU 280258Z AUTO 27012KT 10SM CLR 27/14 A3008 RMK AO2 SLP107 T02650136 51012

More Conditions Fewer Conditions

Pressure 29.85 in
Visibility 10.0 miles
Clouds Clear
Heat Index 79 °F
Dew Point 58 °F
Humidity 50%
Rainfall 0.00 in
Snow Depth Not available.
UV 0.0 out of 12
Pollen 4.70 out of 12
Air Quality Not available.
Flu Activity Not available.
METAR KFHU 280258Z AUTO 27012KT 10SM CLR 27/14 A3008 RMK AO2 SLP107 T02650136 51012

More Conditions Fewer Conditions

10-Day Weather Forecast

×

Almanac

Astronomy

Jul. 27, 2015 Rise Set
Actual Time
Civil Twilight
Nautical Twilight
Astronomical Twilight
Moon
Length of Visible Light
Length of Day
Tomorrow will be .
, % of the Moon is Illuminated

Today's Extremes

State Highs State Lows

Community

WunderPhotos

Upload Photos

1,841,787 photos uploaded!

WunderBlogs® & News

Nearby

Air Quality

  Air Quality AQ Index Pollutant
Not available.

Snow Depth

Station Depth Elevation

Earthquake Activity

City Distance Mag. Time & Date
Minimum magnitude displayed is 2.5.

Coastal Water Temperatures

Place Temperature

Stations

Nearby Weather Stations

Station Location Temp. Windchill Dew Point Humidity Wind Precip. Elev Updated Type